Eunice, Louisiana
Current Conditions -  °F | °C
As of 10:15 PM on Tuesday 25 Nov 2014 (Local Time) from KOPL Reporting Station
Clear Clear  
Wind Chill: 36°   Ceiling: Unl
Heat Index: 36°   Visibility: 10mi
Dew Point: 35°   Wind: 0mph
Humidity: 96%   Direction: NA
Pressure: 30.25"   Gusts: NA
Location:  30.49°N, 92.41°W
Report Text: KOPL 260415Z AUTO 00000KT 10SM CLR 02/01 A3025 RMK AO2 T00200014
Loading
Personal Weather Stations






























Interactive Weather Map New forecast layout! Learn more

10-Day Weather Forecast

Advertisements
Track Severe Weather on mobile